sensor_id;sensor_type;location;lat;lon;timestamp;P1;durP1;ratioP1;P2;durP2;ratioP2
27979;SDS011;15315;50.836;4.430;2023-06-26T00:05:10;9.02;;;5.50;;
27979;SDS011;15315;50.836;4.430;2023-06-26T00:15:11;9.73;;;5.43;;
27979;SDS011;15315;50.836;4.430;2023-06-26T00:25:12;8.10;;;4.70;;
27979;SDS011;15315;50.836;4.430;2023-06-26T00:35:12;5.55;;;4.38;;
27979;SDS011;15315;50.836;4.430;2023-06-26T00:45:12;7.47;;;4.45;;
27979;SDS011;15315;50.836;4.430;2023-06-26T00:55:13;12.98;;;4.22;;
27979;SDS011;15315;50.836;4.430;2023-06-26T01:05:13;5.17;;;3.70;;
27979;SDS011;15315;50.836;4.430;2023-06-26T01:15:21;8.57;;;4.07;;
27979;SDS011;15315;50.836;4.430;2023-06-26T01:25:23;7.40;;;3.60;;
27979;SDS011;15315;50.836;4.430;2023-06-26T01:35:28;5.63;;;3.50;;
27979;SDS011;15315;50.836;4.430;2023-06-26T01:45:29;6.55;;;3.78;;
27979;SDS011;15315;50.836;4.430;2023-06-26T01:55:40;7.35;;;3.35;;
27979;SDS011;15315;50.836;4.430;2023-06-26T02:05:50;8.00;;;3.60;;
27979;SDS011;15315;50.836;4.430;2023-06-26T02:15:51;6.85;;;3.65;;
27979;SDS011;15315;50.836;4.430;2023-06-26T02:25:51;13.75;;;4.00;;
27979;SDS011;15315;50.836;4.430;2023-06-26T02:35:52;9.18;;;3.95;;
27979;SDS011;15315;50.836;4.430;2023-06-26T02:45:52;16.48;;;5.72;;
27979;SDS011;15315;50.836;4.430;2023-06-26T02:55:52;10.90;;;3.95;;
27979;SDS011;15315;50.836;4.430;2023-06-26T03:05:53;14.23;;;4.70;;
27979;SDS011;15315;50.836;4.430;2023-06-26T03:15:53;11.57;;;4.13;;
27979;SDS011;15315;50.836;4.430;2023-06-26T03:25:53;9.63;;;4.38;;
27979;SDS011;15315;50.836;4.430;2023-06-26T03:35:54;16.58;;;5.15;;
27979;SDS011;15315;50.836;4.430;2023-06-26T03:45:54;14.18;;;4.78;;
27979;SDS011;15315;50.836;4.430;2023-06-26T03:55:54;19.08;;;4.80;;
27979;SDS011;15315;50.836;4.430;2023-06-26T04:05:55;17.27;;;5.05;;
27979;SDS011;15315;50.836;4.430;2023-06-26T04:15:55;17.33;;;4.72;;
27979;SDS011;15315;50.836;4.430;2023-06-26T04:25:55;19.65;;;5.18;;
27979;SDS011;15315;50.836;4.430;2023-06-26T04:35:58;18.25;;;5.22;;
27979;SDS011;15315;50.836;4.430;2023-06-26T04:45:59;12.70;;;4.00;;
27979;SDS011;15315;50.836;4.430;2023-06-26T04:56:00;20.75;;;4.75;;
27979;SDS011;15315;50.836;4.430;2023-06-26T05:06:00;12.95;;;4.47;;
27979;SDS011;15315;50.836;4.430;2023-06-26T05:16:00;18.40;;;4.80;;
27979;SDS011;15315;50.836;4.430;2023-06-26T05:26:01;11.68;;;3.63;;
27979;SDS011;15315;50.836;4.430;2023-06-26T05:36:03;16.15;;;3.92;;
27979;SDS011;15315;50.836;4.430;2023-06-26T05:46:04;21.92;;;4.65;;
27979;SDS011;15315;50.836;4.430;2023-06-26T05:56:05;11.85;;;3.53;;
27979;SDS011;15315;50.836;4.430;2023-06-26T06:06:05;18.77;;;3.60;;
27979;SDS011;15315;50.836;4.430;2023-06-26T06:16:06;20.42;;;3.05;;
27979;SDS011;15315;50.836;4.430;2023-06-26T06:26:06;10.02;;;2.78;;
27979;SDS011;15315;50.836;4.430;2023-06-26T06:36:07;14.32;;;2.60;;
27979;SDS011;15315;50.836;4.430;2023-06-26T06:46:07;10.38;;;3.42;;
27979;SDS011;15315;50.836;4.430;2023-06-26T06:56:07;9.80;;;2.60;;
27979;SDS011;15315;50.836;4.430;2023-06-26T07:06:08;11.63;;;2.70;;
27979;SDS011;15315;50.836;4.430;2023-06-26T07:16:08;8.23;;;2.33;;
27979;SDS011;15315;50.836;4.430;2023-06-26T07:26:11;10.20;;;2.45;;
27979;SDS011;15315;50.836;4.430;2023-06-26T07:36:11;12.13;;;2.13;;
27979;SDS011;15315;50.836;4.430;2023-06-26T07:46:11;7.20;;;1.85;;
27979;SDS011;15315;50.836;4.430;2023-06-26T07:56:12;10.63;;;2.53;;
27979;SDS011;15315;50.836;4.430;2023-06-26T08:06:12;8.70;;;2.22;;
27979;SDS011;15315;50.836;4.430;2023-06-26T08:16:13;9.10;;;2.70;;
27979;SDS011;15315;50.836;4.430;2023-06-26T08:26:13;12.80;;;2.28;;
27979;SDS011;15315;50.836;4.430;2023-06-26T08:36:14;7.67;;;2.17;;
27979;SDS011;15315;50.836;4.430;2023-06-26T08:46:14;11.73;;;1.83;;
27979;SDS011;15315;50.836;4.430;2023-06-26T08:56:15;8.35;;;2.25;;
27979;SDS011;15315;50.836;4.430;2023-06-26T09:06:17;8.63;;;1.75;;
27979;SDS011;15315;50.836;4.430;2023-06-26T09:16:23;7.25;;;2.00;;
27979;SDS011;15315;50.836;4.430;2023-06-26T09:26:26;13.13;;;2.47;;
27979;SDS011;15315;50.836;4.430;2023-06-26T09:36:27;6.10;;;2.03;;
27979;SDS011;15315;50.836;4.430;2023-06-26T09:46:29;6.57;;;1.88;;
27979;SDS011;15315;50.836;4.430;2023-06-26T09:56:31;6.93;;;1.50;;
27979;SDS011;15315;50.836;4.430;2023-06-26T10:06:36;5.70;;;2.13;;
27979;SDS011;15315;50.836;4.430;2023-06-26T10:16:41;9.10;;;2.22;;
27979;SDS011;15315;50.836;4.430;2023-06-26T10:26:44;8.33;;;2.47;;
27979;SDS011;15315;50.836;4.430;2023-06-26T10:36:46;5.47;;;2.03;;
27979;SDS011;15315;50.836;4.430;2023-06-26T10:46:48;5.45;;;1.80;;
27979;SDS011;15315;50.836;4.430;2023-06-26T10:56:54;4.22;;;1.80;;
27979;SDS011;15315;50.836;4.430;2023-06-26T11:07:14;8.88;;;2.10;;
27979;SDS011;15315;50.836;4.430;2023-06-26T11:17:19;6.28;;;2.13;;
27979;SDS011;15315;50.836;4.430;2023-06-26T11:27:20;7.40;;;2.20;;
27979;SDS011;15315;50.836;4.430;2023-06-26T11:47:24;8.07;;;2.20;;
27979;SDS011;15315;50.836;4.430;2023-06-26T11:57:24;4.93;;;1.90;;
27979;SDS011;15315;50.836;4.430;2023-06-26T12:07:25;4.50;;;2.10;;
27979;SDS011;15315;50.836;4.430;2023-06-26T12:17:25;6.07;;;1.90;;
27979;SDS011;15315;50.836;4.430;2023-06-26T12:27:26;5.82;;;1.95;;
27979;SDS011;15315;50.836;4.430;2023-06-26T12:37:27;5.85;;;1.70;;
27979;SDS011;15315;50.836;4.430;2023-06-26T12:47:28;8.90;;;2.30;;
27979;SDS011;15315;50.836;4.430;2023-06-26T12:57:30;5.40;;;2.33;;
27979;SDS011;15315;50.836;4.430;2023-06-26T13:07:31;5.57;;;2.15;;
27979;SDS011;15315;50.836;4.430;2023-06-26T13:17:31;6.65;;;1.90;;
27979;SDS011;15315;50.836;4.430;2023-06-26T13:27:32;6.50;;;1.95;;
27979;SDS011;15315;50.836;4.430;2023-06-26T13:37:32;8.52;;;1.98;;
27979;SDS011;15315;50.836;4.430;2023-06-26T13:47:34;8.18;;;2.30;;
27979;SDS011;15315;50.836;4.430;2023-06-26T13:57:34;6.50;;;1.98;;
27979;SDS011;15315;50.836;4.430;2023-06-26T14:07:34;3.15;;;1.75;;
27979;SDS011;15315;50.836;4.430;2023-06-26T14:17:35;6.43;;;1.90;;
27979;SDS011;15315;50.836;4.430;2023-06-26T14:27:36;12.20;;;2.40;;
27979;SDS011;15315;50.836;4.430;2023-06-26T14:37:37;8.30;;;2.13;;
27979;SDS011;15315;50.836;4.430;2023-06-26T14:47:39;7.40;;;2.22;;
27979;SDS011;15315;50.836;4.430;2023-06-26T14:57:39;6.47;;;2.30;;
27979;SDS011;15315;50.836;4.430;2023-06-26T15:07:39;9.95;;;2.38;;
27979;SDS011;15315;50.836;4.430;2023-06-26T15:17:40;9.05;;;2.35;;
27979;SDS011;15315;50.836;4.430;2023-06-26T15:27:40;8.07;;;1.88;;
27979;SDS011;15315;50.836;4.430;2023-06-26T15:37:41;13.15;;;2.00;;
27979;SDS011;15315;50.836;4.430;2023-06-26T15:47:41;7.40;;;2.33;;
27979;SDS011;15315;50.836;4.430;2023-06-26T15:57:41;4.35;;;2.20;;
27979;SDS011;15315;50.836;4.430;2023-06-26T16:07:42;5.13;;;2.30;;
27979;SDS011;15315;50.836;4.430;2023-06-26T16:17:42;5.28;;;2.55;;
27979;SDS011;15315;50.836;4.430;2023-06-26T16:27:43;4.70;;;1.70;;
27979;SDS011;15315;50.836;4.430;2023-06-26T16:37:43;9.70;;;2.03;;
27979;SDS011;15315;50.836;4.430;2023-06-26T16:47:44;6.32;;;1.90;;
27979;SDS011;15315;50.836;4.430;2023-06-26T16:57:45;7.28;;;1.75;;
27979;SDS011;15315;50.836;4.430;2023-06-26T17:07:45;4.40;;;1.63;;
27979;SDS011;15315;50.836;4.430;2023-06-26T17:17:47;7.55;;;1.98;;
27979;SDS011;15315;50.836;4.430;2023-06-26T17:27:48;4.50;;;1.77;;
27979;SDS011;15315;50.836;4.430;2023-06-26T17:37:48;6.15;;;2.08;;
27979;SDS011;15315;50.836;4.430;2023-06-26T17:47:49;6.90;;;1.88;;
27979;SDS011;15315;50.836;4.430;2023-06-26T17:57:49;11.40;;;1.70;;
27979;SDS011;15315;50.836;4.430;2023-06-26T18:07:50;9.27;;;1.90;;
27979;SDS011;15315;50.836;4.430;2023-06-26T18:17:50;4.10;;;1.92;;
27979;SDS011;15315;50.836;4.430;2023-06-26T18:27:51;7.32;;;2.17;;
27979;SDS011;15315;50.836;4.430;2023-06-26T18:37:51;9.27;;;2.05;;
27979;SDS011;15315;50.836;4.430;2023-06-26T18:47:51;4.45;;;1.60;;
27979;SDS011;15315;50.836;4.430;2023-06-26T18:57:52;6.07;;;1.70;;
27979;SDS011;15315;50.836;4.430;2023-06-26T19:07:52;4.45;;;1.35;;
27979;SDS011;15315;50.836;4.430;2023-06-26T19:17:53;6.80;;;1.70;;
27979;SDS011;15315;50.836;4.430;2023-06-26T19:27:53;8.45;;;1.85;;
27979;SDS011;15315;50.836;4.430;2023-06-26T19:37:54;6.45;;;1.73;;
27979;SDS011;15315;50.836;4.430;2023-06-26T19:47:54;5.13;;;2.08;;
27979;SDS011;15315;50.836;4.430;2023-06-26T19:57:54;5.15;;;1.85;;
27979;SDS011;15315;50.836;4.430;2023-06-26T20:07:55;6.10;;;1.85;;
27979;SDS011;15315;50.836;4.430;2023-06-26T20:17:55;6.15;;;1.88;;
27979;SDS011;15315;50.836;4.430;2023-06-26T20:27:55;5.90;;;2.03;;
27979;SDS011;15315;50.836;4.430;2023-06-26T20:37:56;5.28;;;1.75;;
27979;SDS011;15315;50.836;4.430;2023-06-26T20:47:56;13.20;;;2.53;;
27979;SDS011;15315;50.836;4.430;2023-06-26T20:57:57;12.25;;;2.45;;
27979;SDS011;15315;50.836;4.430;2023-06-26T21:07:57;5.95;;;2.67;;
27979;SDS011;15315;50.836;4.430;2023-06-26T21:17:59;10.40;;;2.53;;
27979;SDS011;15315;50.836;4.430;2023-06-26T21:27:59;13.23;;;2.80;;
27979;SDS011;15315;50.836;4.430;2023-06-26T21:37:59;5.25;;;1.95;;
27979;SDS011;15315;50.836;4.430;2023-06-26T21:48:00;10.10;;;2.50;;
27979;SDS011;15315;50.836;4.430;2023-06-26T21:58:00;11.70;;;2.20;;
27979;SDS011;15315;50.836;4.430;2023-06-26T22:08:00;11.73;;;3.95;;
27979;SDS011;15315;50.836;4.430;2023-06-26T22:18:01;8.55;;;2.70;;
27979;SDS011;15315;50.836;4.430;2023-06-26T22:28:02;8.07;;;2.23;;
27979;SDS011;15315;50.836;4.430;2023-06-26T22:38:02;11.73;;;2.75;;
27979;SDS011;15315;50.836;4.430;2023-06-26T22:48:03;13.77;;;2.70;;
27979;SDS011;15315;50.836;4.430;2023-06-26T22:58:03;14.40;;;2.80;;
27979;SDS011;15315;50.836;4.430;2023-06-26T23:08:04;19.30;;;2.88;;
27979;SDS011;15315;50.836;4.430;2023-06-26T23:18:05;10.50;;;4.20;;
27979;SDS011;15315;50.836;4.430;2023-06-26T23:28:06;13.35;;;4.22;;
27979;SDS011;15315;50.836;4.430;2023-06-26T23:38:06;15.90;;;4.68;;
27979;SDS011;15315;50.836;4.430;2023-06-26T23:48:07;14.13;;;3.90;;
27979;SDS011;15315;50.836;4.430;2023-06-26T23:58:07;19.63;;;4.20;;
